createdAt,value
2018-01-22T00:01:42.470Z,76.60
2018-01-22T00:04:10.726Z,76.70
2018-01-22T00:06:38.267Z,76.60
2018-01-22T00:09:05.754Z,77.30
2018-01-22T00:11:34.019Z,76.20
2018-01-22T00:14:01.519Z,76.20
2018-01-22T00:16:29.059Z,75.80
2018-01-22T00:18:57.338Z,75.90
2018-01-22T00:21:25.595Z,75.10
2018-01-22T00:23:54.198Z,75.20
2018-01-22T00:26:22.466Z,75.00
2018-01-22T00:28:50.734Z,75.00
2018-01-22T00:31:19.041Z,75.10
2018-01-22T00:33:46.538Z,75.20
2018-01-22T00:36:14.030Z,75.10
2018-01-22T00:38:42.306Z,75.00
2018-01-22T00:41:10.577Z,75.00
2018-01-22T00:43:38.068Z,74.90
2018-01-22T00:46:05.578Z,75.50
2018-01-22T00:48:33.071Z,74.10
2018-01-22T00:51:00.723Z,73.50
2018-01-22T00:53:29.003Z,73.00
2018-01-22T00:55:57.259Z,72.10
2018-01-22T00:58:24.776Z,72.00
2018-01-22T01:00:52.274Z,71.90
2018-01-22T01:03:19.779Z,72.10
2018-01-22T01:05:47.271Z,72.40
2018-01-22T01:08:14.788Z,72.40
2018-01-22T01:10:42.303Z,72.60
2018-01-22T01:13:09.811Z,72.30
2018-01-22T01:15:37.331Z,71.70
2018-01-22T01:18:04.827Z,72.00
2018-01-22T01:20:32.367Z,72.10
2018-01-22T01:23:00.635Z,72.20
2018-01-22T01:25:28.902Z,72.10
2018-01-22T01:27:57.211Z,71.90
2018-01-22T01:30:24.712Z,71.90
2018-01-22T01:32:52.218Z,71.80
2018-01-22T01:35:19.724Z,71.50
2018-01-22T01:37:47.238Z,71.10
2018-01-22T01:40:14.755Z,70.40
2018-01-22T01:42:42.254Z,70.20
2018-01-22T01:45:09.766Z,70.90
2018-01-22T01:47:37.268Z,70.20
2018-01-22T01:50:04.918Z,70.20
2018-01-22T01:52:33.190Z,70.20
2018-01-22T01:55:01.462Z,70.40
2018-01-22T01:57:29.730Z,70.80
2018-01-22T01:59:57.228Z,70.70
2018-01-22T02:02:24.722Z,70.60
2018-01-22T02:04:52.215Z,71.50
2018-01-22T02:07:20.486Z,70.90
2018-01-22T02:09:48.771Z,71.40
2018-01-22T02:12:17.058Z,71.90
2018-01-22T02:14:44.555Z,71.90
2018-01-22T02:17:12.055Z,72.40
2018-01-22T02:19:40.545Z,73.60
2018-01-22T02:22:09.022Z,72.60
2018-01-22T02:24:37.286Z,72.60
2018-01-22T02:27:04.787Z,72.50
2018-01-22T02:29:32.296Z,72.90
2018-01-22T02:31:59.920Z,72.50
2018-01-22T02:34:27.569Z,72.50
2018-01-22T02:36:55.077Z,72.40
2018-01-22T02:39:22.775Z,72.30
2018-01-22T02:41:50.286Z,72.30
2018-01-22T02:44:17.793Z,72.40
2018-01-22T02:46:45.291Z,72.40
2018-01-22T02:49:12.790Z,72.40
2018-01-22T02:51:41.071Z,72.30
2018-01-22T02:54:09.335Z,72.30
2018-01-22T02:56:36.835Z,72.20
2018-01-22T02:59:04.327Z,72.30
2018-01-22T03:01:31.826Z,72.30
2018-01-22T03:04:00.107Z,72.40
2018-01-22T03:06:28.366Z,73.10
2018-01-22T03:08:56.670Z,72.30
2018-01-22T03:11:24.185Z,72.30
2018-01-22T03:13:51.884Z,72.40
2018-01-22T03:16:20.198Z,72.40
2018-01-22T03:18:47.690Z,72.40
2018-01-22T03:21:15.192Z,72.40
2018-01-22T03:23:42.830Z,72.60
2018-01-22T03:26:11.114Z,72.20
2018-01-22T03:28:39.371Z,72.20
2018-01-22T03:31:07.652Z,72.10
2018-01-22T03:33:36.134Z,72.20
2018-01-22T03:36:04.422Z,72.30
2018-01-22T03:38:32.682Z,72.40
2018-01-22T03:41:00.950Z,72.50
2018-01-22T03:43:28.460Z,72.50
2018-01-22T03:45:56.008Z,72.60
2018-01-22T03:48:23.502Z,72.60
2018-01-22T03:50:51.011Z,72.60
2018-01-22T03:53:18.527Z,72.50
2018-01-22T03:55:46.027Z,72.50
2018-01-22T03:58:13.522Z,73.50
2018-01-22T04:00:41.026Z,72.70
2018-01-22T04:03:09.314Z,72.90
2018-01-22T04:05:37.601Z,73.10
2018-01-22T04:08:05.104Z,73.10
2018-01-22T04:10:32.606Z,73.40
2018-01-22T04:13:00.878Z,74.00
2018-01-22T04:15:29.153Z,74.10
2018-01-22T04:17:57.430Z,74.40
2018-01-22T04:20:25.709Z,74.60
2018-01-22T04:22:53.976Z,74.70
2018-01-22T04:25:22.234Z,74.60
2018-01-22T04:27:49.731Z,74.60
2018-01-22T04:30:17.235Z,74.70
2018-01-22T04:32:44.734Z,74.80
2018-01-22T04:35:13.010Z,74.80
2018-01-22T04:37:41.280Z,74.80
2018-01-22T04:40:09.550Z,75.10
2018-01-22T04:42:37.045Z,75.10
2018-01-22T04:45:04.554Z,75.30
2018-01-22T04:47:32.827Z,75.60
2018-01-22T04:50:00.331Z,75.60
2018-01-22T04:52:27.879Z,75.70
2018-01-22T04:54:56.146Z,76.00
2018-01-22T04:57:24.410Z,76.10
2018-01-22T04:59:51.919Z,76.00
2018-01-22T05:02:19.416Z,76.10
2018-01-22T05:04:46.914Z,76.00
2018-01-22T05:07:14.405Z,76.00
2018-01-22T05:09:41.947Z,76.20
2018-01-22T05:12:09.442Z,76.30
2018-01-22T05:14:36.938Z,76.50
2018-01-22T05:17:05.200Z,76.70
2018-01-22T05:19:33.486Z,76.60
2018-01-22T05:22:02.734Z,76.60
2018-01-22T05:24:30.230Z,76.50
2018-01-22T05:26:57.730Z,76.60
2018-01-22T05:29:25.243Z,76.90
2018-01-22T05:31:52.742Z,77.30
2018-01-22T05:34:20.238Z,78.30
2018-01-22T05:36:47.742Z,77.30
2018-01-22T05:39:15.254Z,77.40
2018-01-22T05:41:42.751Z,77.40
2018-01-22T05:44:11.010Z,77.30
2018-01-22T05:46:38.510Z,77.30
2018-01-22T05:49:06.040Z,76.90
2018-01-22T05:51:34.303Z,77.50
2018-01-22T05:54:01.795Z,77.50
2018-01-22T05:56:29.682Z,77.60
2018-01-22T05:58:57.178Z,77.50
2018-01-22T06:01:24.681Z,77.50
2018-01-22T06:03:52.176Z,77.60
2018-01-22T06:06:19.669Z,77.50
2018-01-22T06:08:47.933Z,78.00
2018-01-22T06:11:16.214Z,77.90
2018-01-22T06:13:43.731Z,77.90
2018-01-22T06:16:11.446Z,77.90
2018-01-22T06:18:39.714Z,77.90
2018-01-22T06:21:07.222Z,77.90
2018-01-22T06:23:34.718Z,78.00
2018-01-22T06:26:02.235Z,78.00
2018-01-22T06:28:29.856Z,78.00
2018-01-22T06:30:58.998Z,78.10
2018-01-22T06:33:26.614Z,78.10
2018-01-22T06:35:54.890Z,78.10
2018-01-22T06:38:23.147Z,78.20
2018-01-22T06:40:50.643Z,78.20
2018-01-22T06:43:18.175Z,78.30
2018-01-22T06:45:46.439Z,78.80
2018-01-22T06:48:13.944Z,78.80
2018-01-22T06:50:41.459Z,79.10
2018-01-22T06:53:08.969Z,79.30
2018-01-22T06:55:36.474Z,79.40
2018-01-22T06:58:03.986Z,80.40
2018-01-22T07:00:31.528Z,79.90
2018-01-22T07:02:59.037Z,79.90
2018-01-22T07:05:26.646Z,80.10
2018-01-22T07:07:54.182Z,80.30
2018-01-22T07:10:22.442Z,80.60
2018-01-22T07:12:49.995Z,80.60
2018-01-22T07:15:17.487Z,80.60
2018-01-22T07:17:45.754Z,80.90
2018-01-22T07:20:16.972Z,80.90
2018-01-22T07:22:44.465Z,80.90
2018-01-22T07:25:12.732Z,80.80
2018-01-22T07:27:41.017Z,80.60
2018-01-22T07:30:09.270Z,80.50
2018-01-22T07:32:36.783Z,80.30
2018-01-22T07:35:04.278Z,80.20
2018-01-22T07:37:31.974Z,79.90
2018-01-22T07:40:00.237Z,79.60
2018-01-22T07:42:27.731Z,79.50
2018-01-22T07:44:55.226Z,79.70
2018-01-22T07:47:23.028Z,79.70
2018-01-22T07:49:51.303Z,79.70
2018-01-22T07:52:19.571Z,79.30
2018-01-22T07:54:47.846Z,79.30
2018-01-22T07:57:16.122Z,80.20
2018-01-22T07:59:43.619Z,79.40
2018-01-22T08:02:11.151Z,79.80
2018-01-22T08:04:39.427Z,80.40
2018-01-22T08:07:07.707Z,80.70
2018-01-22T08:09:35.966Z,80.70
2018-01-22T08:12:03.462Z,80.80
2018-01-22T08:14:30.975Z,80.70
2018-01-22T08:16:58.467Z,80.80
2018-01-22T08:19:25.996Z,80.40
2018-01-22T08:21:53.524Z,80.40
2018-01-22T08:24:21.022Z,80.10
2018-01-22T08:26:49.294Z,80.20
2018-01-22T08:29:16.811Z,80.20
2018-01-22T08:31:44.361Z,79.70
2018-01-22T08:34:12.594Z,79.30
2018-01-22T08:36:40.878Z,79.30
2018-01-22T08:39:09.136Z,79.20
2018-01-22T08:41:36.647Z,79.10
2018-01-22T08:44:04.166Z,78.90
2018-01-22T08:46:32.439Z,79.40
2018-01-22T08:49:00.706Z,79.50
2018-01-22T08:51:28.975Z,80.10
2018-01-22T08:53:56.480Z,79.40
2018-01-22T08:56:24.026Z,79.00
2018-01-22T08:58:51.530Z,77.50
2018-01-22T09:01:19.074Z,77.40
2018-01-22T09:03:46.567Z,77.70
2018-01-22T09:06:14.354Z,78.30
2018-01-22T09:08:42.618Z,78.80
2018-01-22T09:11:10.115Z,78.80
2018-01-22T09:13:37.617Z,78.90
2018-01-22T09:16:05.239Z,78.40
2018-01-22T09:18:32.754Z,78.80
2018-01-22T09:21:01.018Z,79.00
2018-01-22T09:23:28.511Z,78.90
2018-01-22T09:25:56.012Z,78.20
2018-01-22T09:28:23.507Z,77.80
2018-01-22T09:30:51.042Z,78.00
2018-01-22T09:33:18.587Z,77.50
2018-01-22T09:35:46.082Z,77.10
2018-01-22T09:38:13.577Z,76.90
2018-01-22T09:40:41.093Z,77.10
2018-01-22T09:43:08.598Z,76.90
2018-01-22T09:45:36.111Z,77.00
2018-01-22T09:48:03.609Z,76.90
2018-01-22T09:50:31.107Z,76.80
2018-01-22T09:52:58.610Z,77.20
2018-01-22T09:55:26.919Z,78.10
2018-01-22T09:57:54.422Z,78.10
2018-01-22T10:00:21.918Z,78.20
2018-01-22T10:02:49.455Z,77.00
2018-01-22T10:05:17.734Z,74.80
2018-01-22T10:07:45.999Z,74.40
2018-01-22T10:10:14.268Z,73.70
2018-01-22T10:12:42.675Z,73.80
2018-01-22T10:15:10.176Z,73.80
2018-01-22T10:17:37.690Z,73.80
2018-01-22T10:20:05.186Z,74.00
2018-01-22T10:22:32.678Z,72.80
2018-01-22T10:25:00.176Z,73.00
2018-01-22T10:27:27.686Z,72.90
2018-01-22T10:29:55.186Z,71.30
2018-01-22T10:32:22.675Z,70.20
2018-01-22T10:34:50.187Z,69.50
2018-01-22T10:37:18.667Z,68.90
2018-01-22T10:39:46.934Z,68.40
2018-01-22T10:42:15.314Z,68.50
2018-01-22T10:44:43.580Z,67.70
2018-01-22T10:47:11.120Z,67.60
2018-01-22T10:49:38.638Z,67.50
2018-01-22T10:52:06.438Z,65.40
2018-01-22T10:54:33.981Z,65.90
2018-01-22T10:57:01.451Z,66.30
2018-01-22T10:59:28.997Z,65.10
2018-01-22T11:01:56.497Z,65.30
2018-01-22T11:04:23.992Z,66.20
2018-01-22T11:06:51.495Z,65.80
2018-01-22T11:09:19.027Z,65.70
2018-01-22T11:11:46.677Z,65.60
2018-01-22T11:14:14.230Z,65.40
2018-01-22T11:16:41.866Z,64.00
2018-01-22T11:19:10.158Z,62.80
2018-01-22T11:21:37.741Z,62.60
2018-01-22T11:24:05.342Z,62.40
2018-01-22T11:26:32.889Z,62.30
2018-01-22T11:29:00.478Z,61.90
2018-01-22T11:31:28.935Z,60.30
2018-01-22T11:33:56.508Z,60.20
2018-01-22T11:36:24.097Z,60.30
2018-01-22T11:38:51.788Z,60.20
2018-01-22T11:41:19.353Z,60.50
2018-01-22T11:43:46.935Z,60.80
2018-01-22T11:46:14.506Z,60.00
2018-01-22T11:48:42.075Z,61.10
2018-01-22T11:51:10.389Z,60.30
2018-01-22T11:53:37.929Z,60.30
2018-01-22T11:59:37.329Z,59.70
2018-01-22T12:02:04.912Z,59.50
2018-01-22T12:04:33.277Z,57.90
2018-01-22T12:07:00.819Z,57.80
2018-01-22T12:09:29.923Z,57.50
2018-01-22T12:11:57.465Z,57.50
2018-01-22T12:14:25.086Z,57.60
2018-01-22T12:16:52.649Z,56.50
2018-01-22T12:19:20.209Z,56.80
2018-01-22T12:21:47.805Z,57.20
2018-01-22T12:24:15.335Z,56.90
2018-01-22T12:26:42.999Z,57.10
2018-01-22T12:29:10.558Z,55.80
2018-01-22T12:31:38.319Z,55.40
2018-01-22T12:34:05.978Z,55.30
2018-01-22T12:36:33.589Z,53.00
2018-01-22T12:39:01.168Z,53.00
2018-01-22T12:41:29.460Z,53.10
2018-01-22T12:43:57.718Z,52.60
2018-01-22T12:46:25.986Z,53.00
2018-01-22T12:48:53.486Z,53.00
2018-01-22T12:51:21.000Z,53.00
2018-01-22T12:53:50.026Z,53.70
2018-01-22T12:56:17.518Z,53.70
2018-01-22T12:58:45.015Z,53.90
2018-01-22T13:01:13.294Z,53.90
2018-01-22T13:03:41.562Z,54.50
2018-01-22T13:06:09.062Z,54.40
2018-01-22T13:08:36.568Z,54.30
2018-01-22T13:11:04.079Z,54.50
2018-01-22T13:13:31.584Z,55.60
2018-01-22T13:16:00.603Z,56.30
2018-01-22T13:18:28.879Z,56.40
2018-01-22T13:20:57.511Z,56.80
2018-01-22T13:23:25.123Z,56.80
2018-01-22T13:25:53.395Z,57.50
2018-01-22T13:28:21.784Z,57.70
2018-01-22T13:30:50.050Z,57.50
2018-01-22T13:33:18.330Z,57.80
2018-01-22T13:35:46.594Z,58.00
2018-01-22T13:38:14.094Z,58.00
2018-01-22T13:40:47.357Z,56.80
2018-01-22T13:43:15.634Z,55.20
2018-01-22T13:45:43.899Z,55.20
2018-01-22T13:48:12.166Z,55.80
2018-01-22T13:50:39.683Z,56.40
2018-01-22T13:53:07.178Z,56.50
2018-01-22T13:55:34.802Z,56.60
2018-01-22T13:58:02.304Z,56.70
2018-01-22T14:00:30.091Z,57.40
2018-01-22T14:02:58.355Z,58.60
2018-01-22T14:05:26.751Z,58.80
2018-01-22T14:07:55.032Z,59.10
2018-01-22T14:10:22.546Z,59.10
2018-01-22T14:12:50.049Z,59.80
2018-01-22T14:15:18.312Z,60.70
2018-01-22T14:17:46.794Z,60.90
2018-01-22T14:20:15.094Z,61.70
2018-01-22T14:22:42.586Z,61.70
2018-01-22T14:25:10.090Z,61.80
2018-01-22T14:27:38.565Z,61.60
2018-01-22T14:30:06.847Z,61.90
2018-01-22T14:32:35.106Z,62.20
2018-01-22T14:35:02.604Z,62.10
2018-01-22T14:37:30.098Z,62.50
2018-01-22T14:39:57.606Z,62.40
2018-01-22T14:42:25.107Z,62.70
2018-01-22T14:44:52.818Z,63.30
2018-01-22T14:47:21.079Z,63.30
2018-01-22T14:49:48.618Z,63.10
2018-01-22T14:52:16.151Z,63.60
2018-01-22T14:54:43.646Z,64.30
2018-01-22T14:57:11.143Z,64.30
2018-01-22T14:59:38.787Z,63.90
2018-01-22T15:02:07.077Z,63.80
2018-01-22T15:04:34.578Z,63.80
2018-01-22T15:07:02.079Z,63.90
2018-01-22T15:09:30.339Z,65.00
2018-01-22T15:11:57.879Z,65.00
2018-01-22T15:14:25.383Z,65.50
2018-01-22T15:16:53.658Z,66.70
2018-01-22T15:19:21.922Z,67.50
2018-01-22T15:21:50.184Z,68.00
2018-01-22T15:24:17.682Z,68.00
2018-01-22T15:26:45.198Z,69.10
2018-01-22T15:29:12.702Z,70.10
2018-01-22T15:31:40.207Z,71.10
2018-01-22T15:34:07.703Z,72.70
2018-01-22T15:36:35.214Z,72.80
2018-01-22T15:39:02.772Z,73.90
2018-01-22T15:41:30.270Z,74.80
2018-01-22T15:43:58.531Z,76.50
2018-01-22T15:46:26.043Z,76.50
2018-01-22T15:48:53.646Z,77.20
2018-01-22T15:51:21.149Z,77.80
2018-01-22T15:53:48.662Z,78.40
2018-01-22T15:56:16.163Z,79.00
2018-01-22T15:58:43.671Z,79.40
2018-01-22T16:01:11.359Z,79.50
2018-01-22T16:03:39.618Z,79.30
2018-01-22T16:06:07.138Z,79.30
2018-01-22T16:08:34.638Z,79.30
2018-01-22T16:11:02.203Z,79.20
2018-01-22T16:13:30.482Z,79.40
2018-01-22T16:15:58.747Z,79.30
2018-01-22T16:18:26.244Z,79.30
2018-01-22T16:20:53.743Z,79.10
2018-01-22T16:23:21.266Z,79.50
2018-01-22T16:25:48.775Z,79.40
2018-01-22T16:28:16.266Z,79.30
2018-01-22T16:30:43.782Z,79.30
2018-01-22T16:33:11.286Z,79.30
2018-01-22T16:35:38.822Z,79.40
2018-01-22T16:38:07.094Z,79.50
2018-01-22T16:40:34.592Z,79.40
2018-01-22T16:43:02.087Z,80.10
2018-01-22T16:45:29.627Z,79.80
2018-01-22T16:47:57.126Z,79.60
2018-01-22T16:50:24.671Z,79.70
2018-01-22T16:52:53.674Z,79.80
2018-01-22T16:55:21.187Z,79.70
2018-01-22T16:57:48.709Z,79.90
2018-01-22T17:00:16.987Z,80.40
2018-01-22T17:02:45.246Z,80.40
2018-01-22T17:05:12.755Z,80.20
2018-01-22T17:07:40.250Z,81.00
2018-01-22T17:10:07.747Z,80.30
2018-01-22T17:12:35.246Z,80.50
2018-01-22T17:15:02.760Z,80.40
2018-01-22T17:17:30.271Z,80.60
2018-01-22T17:19:57.767Z,80.60
2018-01-22T17:22:26.026Z,80.90
2018-01-22T17:24:53.539Z,80.90
2018-01-22T17:27:21.035Z,80.80
2018-01-22T17:29:48.547Z,80.80
2018-01-22T17:32:16.042Z,80.90
2018-01-22T17:34:43.542Z,80.90
2018-01-22T17:37:11.803Z,81.00
2018-01-22T17:39:40.118Z,80.80
2018-01-22T17:42:07.614Z,80.80
2018-01-22T17:44:35.115Z,80.70
2018-01-22T17:47:03.379Z,80.70
2018-01-22T17:49:31.642Z,80.50
2018-01-22T17:51:59.136Z,80.50
2018-01-22T17:54:26.675Z,80.30
2018-01-22T17:56:54.946Z,80.00
2018-01-22T17:59:23.206Z,79.80
2018-01-22T18:01:50.703Z,79.70
2018-01-22T18:04:18.195Z,79.50
2018-01-22T18:06:45.695Z,79.60
2018-01-22T18:09:13.971Z,80.10
2018-01-22T18:11:42.239Z,80.10
2018-01-22T18:14:10.522Z,80.10
2018-01-22T18:16:38.788Z,80.00
2018-01-22T18:19:06.299Z,80.00
2018-01-22T18:21:33.810Z,80.10
2018-01-22T18:24:02.074Z,80.10
2018-01-22T18:26:29.571Z,80.10
2018-01-22T18:28:57.063Z,80.00
2018-01-22T18:31:24.554Z,80.00
2018-01-22T18:33:52.055Z,79.80
2018-01-22T18:36:19.555Z,79.80
2018-01-22T18:38:47.068Z,79.80
2018-01-22T18:41:14.567Z,79.80
2018-01-22T18:43:42.093Z,80.20
2018-01-22T18:46:09.623Z,80.50
2018-01-22T18:48:37.891Z,80.60
2018-01-22T18:51:06.163Z,80.50
2018-01-22T18:53:33.840Z,80.40
2018-01-22T18:56:02.356Z,80.30
2018-01-22T18:58:29.846Z,80.30
2018-01-22T19:00:57.345Z,80.20
2018-01-22T19:03:24.991Z,80.20
2018-01-22T19:05:53.255Z,80.50
2018-01-22T19:08:20.870Z,80.50
2018-01-22T19:10:48.370Z,80.40
2018-01-22T19:13:15.871Z,80.80
2018-01-22T19:15:43.394Z,81.20
2018-01-22T19:18:11.687Z,81.20
2018-01-22T19:20:39.990Z,81.10
2018-01-22T19:23:07.502Z,81.10
2018-01-22T19:25:35.016Z,81.00
2018-01-22T19:28:02.518Z,80.90
2018-01-22T19:30:30.030Z,80.80
2018-01-22T19:32:57.538Z,80.70
2018-01-22T19:35:25.807Z,80.80
2018-01-22T19:37:53.350Z,80.70
2018-01-22T19:40:20.843Z,81.00
2018-01-22T19:42:49.122Z,81.50
2018-01-22T19:45:17.386Z,81.70
2018-01-22T19:47:45.747Z,81.80
2018-01-22T19:50:13.242Z,81.80
2018-01-22T19:52:41.523Z,81.90
2018-01-22T19:55:09.787Z,81.50
2018-01-22T19:57:38.203Z,81.40
2018-01-22T20:00:05.713Z,81.60
2018-01-22T20:02:33.209Z,81.80
2018-01-22T20:05:00.713Z,81.80
2018-01-22T20:07:28.402Z,81.70
2018-01-22T20:09:56.662Z,80.70
2018-01-22T20:12:24.156Z,80.60
2018-01-22T20:14:51.650Z,80.90
2018-01-22T20:17:19.158Z,81.20
2018-01-22T20:19:47.437Z,81.30
2018-01-22T20:22:15.702Z,81.40
2018-01-22T20:24:44.183Z,81.60
2018-01-22T20:27:12.438Z,82.20
2018-01-22T20:29:39.949Z,81.50
2018-01-22T20:32:07.583Z,81.50
2018-01-22T20:34:35.846Z,81.10
2018-01-22T20:37:03.350Z,81.10
2018-01-22T20:39:31.610Z,81.50
2018-01-22T20:41:59.102Z,81.50
2018-01-22T20:44:26.603Z,81.50
2018-01-22T20:46:54.871Z,81.70
2018-01-22T20:49:23.135Z,81.30
2018-01-22T20:51:50.652Z,81.30
2018-01-22T20:54:18.158Z,81.50
2018-01-22T20:56:45.837Z,81.20
2018-01-22T20:59:14.110Z,81.90
2018-01-22T21:01:42.373Z,82.00
2018-01-22T21:04:10.058Z,82.00
2018-01-22T21:06:38.324Z,81.90
2018-01-22T21:09:06.590Z,81.90
2018-01-22T21:11:34.154Z,81.90
2018-01-22T21:14:01.666Z,82.00
2018-01-22T21:16:29.166Z,82.10
2018-01-22T21:18:56.671Z,82.10
2018-01-22T21:21:24.175Z,82.70
2018-01-22T21:23:52.455Z,82.00
2018-01-22T21:26:19.972Z,82.00
2018-01-22T21:28:47.471Z,82.10
2018-01-22T21:31:14.964Z,82.00
2018-01-22T21:33:42.459Z,81.90
2018-01-22T21:36:09.958Z,81.90
2018-01-22T21:38:37.449Z,81.90
2018-01-22T21:41:05.808Z,81.80
2018-01-22T21:43:34.084Z,81.90
2018-01-22T21:46:03.126Z,81.70
2018-01-22T21:48:30.618Z,82.40
2018-01-22T21:50:58.778Z,81.60
2018-01-22T21:53:26.475Z,81.60
2018-01-22T21:55:54.731Z,81.20
2018-01-22T21:58:22.227Z,81.00
2018-01-22T22:00:49.731Z,81.20
2018-01-22T22:03:17.238Z,82.10
2018-01-22T22:05:44.746Z,81.20
2018-01-22T22:08:12.239Z,81.30
2018-01-22T22:10:40.501Z,81.50
2018-01-22T22:13:08.003Z,81.50
2018-01-22T22:15:35.497Z,81.50
2018-01-22T22:18:03.033Z,81.30
2018-01-22T22:20:30.502Z,81.20
2018-01-22T22:22:58.006Z,81.20
2018-01-22T22:25:26.270Z,81.40
2018-01-22T22:27:53.778Z,81.40
2018-01-22T22:30:21.294Z,81.50
2018-01-22T22:32:49.562Z,81.80
2018-01-22T22:35:17.090Z,81.70
2018-01-22T22:37:44.571Z,82.00
2018-01-22T22:40:12.074Z,82.40
2018-01-22T22:42:39.570Z,82.50
2018-01-22T22:45:07.085Z,82.80
2018-01-22T22:47:34.582Z,82.70
2018-01-22T22:50:02.290Z,82.70
2018-01-22T22:52:30.551Z,83.00
2018-01-22T22:54:58.191Z,82.90
2018-01-22T22:57:25.690Z,83.20
2018-01-22T22:59:53.194Z,83.40
2018-01-22T23:02:20.698Z,83.40
2018-01-22T23:04:48.971Z,83.10
2018-01-22T23:07:17.237Z,82.90
2018-01-22T23:09:44.742Z,82.90
2018-01-22T23:12:12.247Z,83.00
2018-01-22T23:14:39.738Z,83.00
2018-01-22T23:17:07.250Z,82.90
2018-01-22T23:19:34.742Z,83.00
2018-01-22T23:22:03.030Z,83.30
2018-01-22T23:24:30.566Z,83.40
2018-01-22T23:26:58.842Z,83.60
2018-01-22T23:29:26.340Z,83.50
2018-01-22T23:31:53.904Z,83.40
2018-01-22T23:34:22.132Z,83.60
2018-01-22T23:36:49.643Z,84.30
2018-01-22T23:39:17.134Z,83.60
2018-01-22T23:41:45.416Z,83.40
2018-01-22T23:44:12.924Z,83.30
2018-01-22T23:46:40.418Z,83.30
2018-01-22T23:49:07.919Z,83.00
2018-01-22T23:51:36.394Z,82.60
2018-01-22T23:54:04.654Z,82.90
2018-01-22T23:56:32.158Z,82.90
2018-01-22T23:58:59.694Z,83.20
